Wadena, Iowa
Current Conditions -  °F | °C
As of 4:15 AM on Thursday 29 Jan 2015 (Local Time) from KOLZ Reporting Station
Overcast Overcast  
Wind Chill: 19°   Ceiling: 1200
Heat Index: 32°   Visibility: 7mi
Dew Point: 30°   Wind: 23mph
Humidity: 93%   Direction: 340°NNW
Pressure: 29.87"   Gusts: NA
Location:  42.84°N, 91.66°W
Report Text: KOLZ 291015Z AUTO 34020KT 7SM OVC012 00/M01 A2987 RMK AO2
Loading
Personal Weather Stations






























Interactive Weather Map New forecast layout! Learn more

10-Day Weather Forecast

Advertisements
Track Severe Weather on mobile